createdAt,value
2023-01-29T00:00:14.394Z,-1.00
2023-01-29T00:02:42.623Z,-1.10
2023-01-29T00:05:26.384Z,-1.10
2023-01-29T00:07:55.911Z,-1.10
2023-01-29T00:10:25.321Z,-1.10
2023-01-29T00:12:53.095Z,-1.20
2023-01-29T00:15:21.029Z,-1.20
2023-01-29T00:17:48.846Z,-1.10
2023-01-29T00:20:17.150Z,-1.10
2023-01-29T00:22:45.828Z,-1.10
2023-01-29T00:25:13.487Z,-1.10
2023-01-29T00:27:41.779Z,-1.10
2023-01-29T00:30:13.040Z,-1.10
2023-01-29T00:32:41.194Z,-1.10
2023-01-29T00:35:09.834Z,-1.10
2023-01-29T00:37:38.225Z,-1.10
2023-01-29T00:40:06.368Z,-1.10
2023-01-29T00:42:54.162Z,-1.10
2023-01-29T00:45:22.157Z,-1.10
2023-01-29T00:47:50.462Z,-1.00
2023-01-29T00:50:18.791Z,-1.10
2023-01-29T00:52:48.811Z,-1.00
2023-01-29T00:55:17.025Z,-1.00
2023-01-29T00:57:45.465Z,-1.00
2023-01-29T01:00:18.887Z,-1.00
2023-01-29T01:03:05.960Z,-1.00
2023-01-29T01:05:34.512Z,-1.00
2023-01-29T01:08:02.331Z,-1.00
2023-01-29T01:10:33.576Z,-1.10
2023-01-29T01:13:06.407Z,-1.00
2023-01-29T01:15:38.053Z,-1.00
2023-01-29T01:18:06.282Z,-1.00
2023-01-29T01:20:35.267Z,-1.00
2023-01-29T01:23:03.786Z,-1.00
2023-01-29T01:25:31.467Z,-0.90
2023-01-29T01:30:27.806Z,-1.00
2023-01-29T01:32:56.503Z,-1.00
2023-01-29T01:35:24.055Z,-1.00
2023-01-29T01:37:51.873Z,-1.00
2023-01-29T01:40:24.926Z,-1.00
2023-01-29T01:42:55.910Z,-1.00
2023-01-29T01:45:32.569Z,-1.00
2023-01-29T01:48:26.518Z,-1.00
2023-01-29T01:50:57.587Z,-1.00
2023-01-29T01:53:38.655Z,-1.00
2023-01-29T01:56:14.364Z,-1.00
2023-01-29T01:58:47.214Z,-1.00
2023-01-29T02:01:15.090Z,-1.00
2023-01-29T02:04:06.819Z,-1.00
2023-01-29T02:06:55.470Z,-1.00
2023-01-29T02:09:36.812Z,-1.00
2023-01-29T02:12:11.630Z,-1.00
2023-01-29T02:14:41.766Z,-1.00
2023-01-29T02:17:16.316Z,-1.00
2023-01-29T02:20:06.202Z,-1.10
2023-01-29T02:23:11.548Z,-1.00
2023-01-29T02:25:45.405Z,-1.00
2023-01-29T02:28:40.516Z,-1.00
2023-01-29T02:31:25.543Z,-1.00
2023-01-29T02:34:22.323Z,-1.00
2023-01-29T02:37:22.810Z,-0.90
2023-01-29T02:40:28.928Z,-0.90
2023-01-29T02:43:04.952Z,-1.00
2023-01-29T02:45:41.987Z,-0.90
2023-01-29T02:48:16.259Z,-1.00
2023-01-29T02:50:55.103Z,-1.00
2023-01-29T02:53:37.046Z,-0.90
2023-01-29T02:56:17.039Z,-0.90
2023-01-29T02:58:51.348Z,-0.90
2023-01-29T03:01:30.798Z,-0.90
2023-01-29T03:04:06.238Z,-0.90
2023-01-29T03:06:39.364Z,-0.90
2023-01-29T03:09:13.099Z,-0.90
2023-01-29T03:11:50.194Z,-0.90
2023-01-29T03:14:59.459Z,-0.90
2023-01-29T03:17:40.222Z,-0.90
2023-01-29T03:20:13.975Z,-1.00
2023-01-29T03:23:01.442Z,-1.00
2023-01-29T03:25:48.672Z,-1.00
2023-01-29T03:28:39.167Z,-1.00
2023-01-29T03:31:30.335Z,-1.00
2023-01-29T03:34:24.875Z,-1.00
2023-01-29T03:37:00.171Z,-1.00
2023-01-29T03:39:29.298Z,-1.00
2023-01-29T03:42:17.393Z,-1.00
2023-01-29T03:45:23.848Z,-1.00
2023-01-29T03:48:17.224Z,-1.10
2023-01-29T03:51:01.428Z,-1.10
2023-01-29T03:53:50.036Z,-1.00
2023-01-29T03:56:34.130Z,-1.00
2023-01-29T03:59:05.061Z,-1.00
2023-01-29T04:01:56.547Z,-1.10
2023-01-29T04:04:32.277Z,-1.10
2023-01-29T04:07:16.256Z,-1.10
2023-01-29T04:09:55.600Z,-1.10
2023-01-29T04:12:37.380Z,-1.10
2023-01-29T04:15:09.421Z,-1.10
2023-01-29T04:17:48.780Z,-1.10
2023-01-29T04:20:23.864Z,-1.20
2023-01-29T04:22:53.277Z,-1.20
2023-01-29T04:25:29.208Z,-1.20
2023-01-29T04:28:01.718Z,-1.20
2023-01-29T04:30:34.686Z,-1.10
2023-01-29T04:33:05.063Z,-1.10
2023-01-29T04:35:42.438Z,-1.10
2023-01-29T04:38:37.814Z,-1.10
2023-01-29T04:41:14.502Z,-1.10
2023-01-29T04:43:55.140Z,-1.10
2023-01-29T04:47:07.169Z,-1.00
2023-01-29T04:49:34.970Z,-1.00
2023-01-29T04:52:17.863Z,-1.00
2023-01-29T04:54:51.210Z,-1.00
2023-01-29T04:57:27.290Z,-1.10
2023-01-29T05:00:21.413Z,-1.10
2023-01-29T05:02:49.856Z,-1.20
2023-01-29T05:05:20.490Z,-1.10
2023-01-29T05:07:48.823Z,-1.10
2023-01-29T05:10:20.417Z,-1.10
2023-01-29T05:12:59.439Z,-1.10
2023-01-29T05:15:36.917Z,-1.10
2023-01-29T05:18:08.789Z,-1.10
2023-01-29T05:20:40.203Z,-1.10
2023-01-29T05:23:18.814Z,-1.10
2023-01-29T05:25:48.651Z,-1.10
2023-01-29T05:28:16.892Z,-1.10
2023-01-29T05:30:49.367Z,-1.10
2023-01-29T05:33:21.286Z,-1.00
2023-01-29T05:35:50.011Z,-1.10
2023-01-29T05:38:18.865Z,-1.10
2023-01-29T05:40:46.635Z,-1.20
2023-01-29T05:43:16.908Z,-1.20
2023-01-29T05:45:51.756Z,-1.20
2023-01-29T05:48:19.343Z,-1.20
2023-01-29T05:50:48.387Z,-1.20
2023-01-29T05:53:16.187Z,-1.20
2023-01-29T05:55:47.996Z,-1.10
2023-01-29T05:58:15.759Z,-1.10
2023-01-29T06:00:43.743Z,-1.10
2023-01-29T06:03:11.574Z,-1.10
2023-01-29T06:05:39.913Z,-1.10
2023-01-29T06:08:08.486Z,-1.10
2023-01-29T06:10:36.615Z,-1.10
2023-01-29T06:13:04.473Z,-1.10
2023-01-29T06:15:32.146Z,-1.10
2023-01-29T06:17:59.736Z,-1.10
2023-01-29T06:20:27.432Z,-1.10
2023-01-29T06:22:55.103Z,-1.10
2023-01-29T06:25:22.634Z,-1.10
2023-01-29T06:27:53.457Z,-1.20
2023-01-29T06:30:21.032Z,-1.20
2023-01-29T06:32:48.585Z,-1.10
2023-01-29T06:35:16.705Z,-1.20
2023-01-29T06:37:44.735Z,-1.20
2023-01-29T06:40:14.116Z,-1.20
2023-01-29T06:42:41.901Z,-1.20
2023-01-29T06:45:11.366Z,-1.20
2023-01-29T06:47:39.074Z,-1.20
2023-01-29T06:50:07.903Z,-1.20
2023-01-29T06:52:39.278Z,-1.30
2023-01-29T06:55:07.861Z,-1.30
2023-01-29T06:57:35.548Z,-1.30
2023-01-29T07:00:04.042Z,-1.30
2023-01-29T07:02:33.517Z,-1.30
2023-01-29T07:05:01.218Z,-1.20
2023-01-29T07:07:29.086Z,-1.20
2023-01-29T07:09:56.791Z,-1.20
2023-01-29T07:12:24.691Z,-1.10
2023-01-29T07:14:57.990Z,-1.20
2023-01-29T07:17:25.965Z,-1.20
2023-01-29T07:19:53.597Z,-1.10
2023-01-29T07:22:21.514Z,-1.20
2023-01-29T07:24:49.176Z,-1.10
2023-01-29T07:27:16.916Z,-1.10
2023-01-29T07:29:44.655Z,-1.20
2023-01-29T07:32:14.717Z,-1.10
2023-01-29T07:34:42.453Z,-1.10
2023-01-29T07:37:10.174Z,-1.10
2023-01-29T07:39:37.966Z,-1.10
2023-01-29T07:42:06.150Z,-1.00
2023-01-29T07:44:33.759Z,-1.00
2023-01-29T07:47:01.401Z,-1.00
2023-01-29T07:49:28.871Z,-1.00
2023-01-29T07:51:56.676Z,-1.10
2023-01-29T07:54:25.418Z,-1.10
2023-01-29T07:56:53.064Z,-1.00
2023-01-29T07:59:20.862Z,-1.00
2023-01-29T08:01:48.420Z,-1.00
2023-01-29T08:04:16.066Z,-0.90
2023-01-29T08:06:43.554Z,-0.90
2023-01-29T08:09:11.471Z,-0.90
2023-01-29T08:11:39.171Z,-0.90
2023-01-29T08:14:08.399Z,-1.00
2023-01-29T08:16:36.131Z,-1.00
2023-01-29T08:19:03.747Z,-1.00
2023-01-29T08:21:31.603Z,-1.00
2023-01-29T08:26:31.863Z,-0.90
2023-01-29T08:28:59.757Z,-0.80
2023-01-29T08:31:27.621Z,-0.80
2023-01-29T08:33:55.906Z,-0.80
2023-01-29T08:36:23.635Z,-0.80
2023-01-29T08:38:51.239Z,-0.70
2023-01-29T08:41:19.401Z,-0.70
2023-01-29T08:43:47.248Z,-0.70
2023-01-29T08:46:15.454Z,-0.70
2023-01-29T08:48:43.168Z,-0.60
2023-01-29T08:51:10.948Z,-0.60
2023-01-29T08:53:38.827Z,-0.50
2023-01-29T08:56:06.657Z,-0.50
2023-01-29T08:58:34.183Z,-0.50
2023-01-29T09:01:13.055Z,-0.50
2023-01-29T09:03:44.553Z,-0.50
2023-01-29T09:06:14.103Z,-0.40
2023-01-29T09:08:41.915Z,-0.30
2023-01-29T09:11:09.553Z,-0.30
2023-01-29T09:13:37.256Z,-0.40
2023-01-29T09:16:06.452Z,-0.30
2023-01-29T09:18:34.177Z,-0.20
2023-01-29T09:21:02.673Z,-0.30
2023-01-29T09:23:30.737Z,-0.20
2023-01-29T09:25:59.214Z,-0.30
2023-01-29T09:28:27.341Z,-0.30
2023-01-29T09:30:55.570Z,-0.40
2023-01-29T09:33:24.773Z,-0.40
2023-01-29T09:35:52.463Z,-0.40
2023-01-29T09:38:20.144Z,-0.40
2023-01-29T09:41:20.857Z,-0.50
2023-01-29T09:43:52.668Z,-0.50
2023-01-29T09:46:26.040Z,-0.30
2023-01-29T09:49:02.481Z,-0.30
2023-01-29T09:51:40.194Z,-0.10
2023-01-29T09:54:16.856Z,0.00
2023-01-29T09:56:46.128Z,-0.10
2023-01-29T09:59:15.602Z,-0.20
2023-01-29T10:02:28.206Z,-0.30
2023-01-29T10:05:04.984Z,-0.40
2023-01-29T10:07:55.862Z,-0.40
2023-01-29T10:11:04.341Z,-0.30
2023-01-29T10:13:51.887Z,-0.40
2023-01-29T10:16:55.416Z,-0.40
2023-01-29T10:19:50.446Z,-0.50
2023-01-29T10:22:27.533Z,-0.50
2023-01-29T10:25:02.317Z,-0.40
2023-01-29T10:27:34.686Z,-0.50
2023-01-29T10:30:07.007Z,-0.50
2023-01-29T10:32:36.980Z,-0.50
2023-01-29T10:35:17.758Z,-0.50
2023-01-29T10:37:45.777Z,-0.50
2023-01-29T10:40:22.889Z,-0.50
2023-01-29T10:43:04.881Z,-0.40
2023-01-29T10:45:43.529Z,-0.40
2023-01-29T10:48:40.334Z,-0.30
2023-01-29T10:51:21.428Z,-0.20
2023-01-29T10:54:36.398Z,-0.10
2023-01-29T10:57:42.035Z,0.00
2023-01-29T11:00:25.871Z,-0.20
2023-01-29T11:02:53.945Z,-0.30
2023-01-29T11:05:32.136Z,-0.40
2023-01-29T11:08:11.801Z,-0.40
2023-01-29T11:10:56.463Z,-0.40
2023-01-29T11:13:31.575Z,-0.40
2023-01-29T11:15:59.167Z,-0.40
2023-01-29T11:18:26.719Z,-0.40
2023-01-29T11:21:06.884Z,-0.40
2023-01-29T11:23:34.595Z,-0.30
2023-01-29T11:26:12.732Z,-0.30
2023-01-29T11:28:50.779Z,-0.40
2023-01-29T11:31:26.259Z,-0.50
2023-01-29T11:34:04.715Z,-0.40
2023-01-29T11:36:38.386Z,-0.40
2023-01-29T11:39:12.500Z,-0.50
2023-01-29T11:41:47.332Z,-0.50
2023-01-29T11:44:28.250Z,-0.50
2023-01-29T11:47:10.672Z,-0.50
2023-01-29T11:49:39.479Z,-0.60
2023-01-29T11:52:12.547Z,-0.60
2023-01-29T11:54:51.096Z,-0.50
2023-01-29T11:57:34.080Z,-0.50
2023-01-29T12:00:07.517Z,-0.40
2023-01-29T12:02:44.146Z,-0.30
2023-01-29T12:05:21.424Z,-0.30
2023-01-29T12:07:51.645Z,-0.40
2023-01-29T12:10:34.693Z,-0.30
2023-01-29T12:13:11.360Z,-0.30
2023-01-29T12:15:43.120Z,-0.20
2023-01-29T12:18:32.203Z,-0.20
2023-01-29T12:21:03.324Z,-0.20
2023-01-29T12:24:02.405Z,-0.10
2023-01-29T12:26:32.751Z,-0.10
2023-01-29T12:29:32.850Z,-0.10
2023-01-29T12:32:18.733Z,0.00
2023-01-29T12:34:56.254Z,0.10
2023-01-29T12:37:57.720Z,0.00
2023-01-29T12:40:30.282Z,0.10
2023-01-29T12:43:05.841Z,0.10
2023-01-29T12:45:36.649Z,0.00
2023-01-29T12:48:28.202Z,0.00
2023-01-29T12:51:10.218Z,0.10
2023-01-29T12:53:45.701Z,0.20
2023-01-29T12:56:23.242Z,0.10
2023-01-29T12:58:54.053Z,0.00
2023-01-29T13:01:27.971Z,0.00
2023-01-29T13:04:15.994Z,0.10
2023-01-29T13:06:52.767Z,0.10
2023-01-29T13:09:33.305Z,0.20
2023-01-29T13:12:05.330Z,0.10
2023-01-29T13:14:44.779Z,0.00
2023-01-29T13:17:27.415Z,0.00
2023-01-29T13:19:59.675Z,-0.20
2023-01-29T13:22:33.895Z,-0.20
2023-01-29T13:25:05.412Z,-0.20
2023-01-29T13:27:35.442Z,-0.10
2023-01-29T13:30:04.101Z,-0.10
2023-01-29T13:32:35.140Z,-0.10
2023-01-29T13:35:14.126Z,-0.20
2023-01-29T13:37:48.773Z,-0.20
2023-01-29T13:40:29.146Z,-0.20
2023-01-29T13:43:00.216Z,-0.30
2023-01-29T13:45:33.159Z,-0.40
2023-01-29T13:48:37.174Z,-0.30
2023-01-29T13:51:17.126Z,-0.40
2023-01-29T13:53:54.515Z,-0.40
2023-01-29T13:56:45.001Z,-0.40
2023-01-29T13:59:49.528Z,-0.40
2023-01-29T14:02:26.162Z,-0.30
2023-01-29T14:05:29.646Z,-0.40
2023-01-29T14:07:59.155Z,-0.30
2023-01-29T14:10:29.222Z,-0.30
2023-01-29T14:13:18.140Z,-0.30
2023-01-29T14:15:59.363Z,-0.40
2023-01-29T14:18:32.362Z,-0.40
2023-01-29T14:21:20.489Z,-0.40
2023-01-29T14:23:53.748Z,-0.40
2023-01-29T14:26:30.634Z,-0.60
2023-01-29T14:29:01.410Z,-0.70
2023-01-29T14:31:50.544Z,-0.70
2023-01-29T14:34:31.695Z,-0.70
2023-01-29T14:37:14.597Z,-0.60
2023-01-29T14:39:52.281Z,-0.70
2023-01-29T14:42:32.910Z,-0.70
2023-01-29T14:45:24.890Z,-0.60
2023-01-29T14:47:54.633Z,-0.80
2023-01-29T14:50:45.752Z,-0.80
2023-01-29T14:53:30.368Z,-0.80
2023-01-29T14:56:26.478Z,-0.70
2023-01-29T14:59:03.282Z,-0.70
2023-01-29T15:01:43.640Z,-0.70
2023-01-29T15:04:29.049Z,-0.80
2023-01-29T15:07:11.442Z,-0.80
2023-01-29T15:09:57.253Z,-0.80
2023-01-29T15:12:49.555Z,-0.90
2023-01-29T15:15:47.612Z,-0.80
2023-01-29T15:18:18.422Z,-0.70
2023-01-29T15:20:45.949Z,-0.80
2023-01-29T15:23:31.866Z,-0.80
2023-01-29T15:26:11.831Z,-0.70
2023-01-29T15:28:39.995Z,-0.70
2023-01-29T15:31:13.520Z,-0.70
2023-01-29T15:33:45.962Z,-0.70
2023-01-29T15:36:23.802Z,-0.70
2023-01-29T15:39:28.413Z,-0.70
2023-01-29T15:42:12.649Z,-0.80
2023-01-29T15:44:46.246Z,-0.80
2023-01-29T15:47:15.239Z,-0.70
2023-01-29T15:49:45.355Z,-0.80
2023-01-29T15:52:22.851Z,-0.80
2023-01-29T15:54:51.641Z,-0.80
2023-01-29T15:57:35.700Z,-0.70
2023-01-29T16:00:05.815Z,-0.70
2023-01-29T16:02:41.433Z,-0.70
2023-01-29T16:05:23.273Z,-0.70
2023-01-29T16:07:56.251Z,-0.80
2023-01-29T16:10:28.262Z,-0.80
2023-01-29T16:12:56.862Z,-0.80
2023-01-29T16:15:35.859Z,-0.80
2023-01-29T16:18:31.400Z,-0.90
2023-01-29T16:21:02.587Z,-0.90
2023-01-29T16:23:35.206Z,-0.90
2023-01-29T16:26:07.285Z,-0.80
2023-01-29T16:28:41.836Z,-0.80
2023-01-29T16:31:12.012Z,-0.80
2023-01-29T16:33:43.625Z,-0.80
2023-01-29T16:36:25.712Z,-0.80
2023-01-29T16:38:54.208Z,-0.80
2023-01-29T16:41:22.110Z,-0.80
2023-01-29T16:43:51.156Z,-0.80
2023-01-29T16:46:33.509Z,-0.80
2023-01-29T16:49:01.951Z,-0.70
2023-01-29T16:51:38.794Z,-0.70
2023-01-29T16:54:19.591Z,-0.80
2023-01-29T16:56:49.181Z,-0.80
2023-01-29T16:59:21.713Z,-0.80
2023-01-29T17:01:49.974Z,-0.80
2023-01-29T17:04:19.644Z,-0.80
2023-01-29T17:06:54.643Z,-0.80
2023-01-29T17:09:29.297Z,-0.80
2023-01-29T17:12:02.265Z,-0.90
2023-01-29T17:14:35.971Z,-0.90
2023-01-29T17:17:06.060Z,-0.90
2023-01-29T17:19:33.784Z,-0.90
2023-01-29T17:22:04.780Z,-1.00
2023-01-29T17:24:32.412Z,-1.00
2023-01-29T17:27:03.040Z,-1.00
2023-01-29T17:29:31.775Z,-1.00
2023-01-29T17:32:02.161Z,-1.00
2023-01-29T17:34:29.980Z,-1.00
2023-01-29T17:36:57.644Z,-1.00
2023-01-29T17:39:26.002Z,-1.00
2023-01-29T17:41:55.670Z,-1.00
2023-01-29T17:44:23.784Z,-1.00
2023-01-29T17:46:51.928Z,-1.00
2023-01-29T17:49:28.395Z,-1.00
2023-01-29T17:51:57.421Z,-1.00
2023-01-29T17:54:25.823Z,-1.00
2023-01-29T17:56:54.368Z,-1.00
2023-01-29T17:59:24.286Z,-1.00
2023-01-29T18:01:53.317Z,-1.00
2023-01-29T18:04:21.340Z,-1.00
2023-01-29T18:06:51.144Z,-1.00
2023-01-29T18:09:21.168Z,-1.00
2023-01-29T18:11:49.937Z,-1.00
2023-01-29T18:14:18.240Z,-1.00
2023-01-29T18:16:45.927Z,-1.00
2023-01-29T18:19:27.631Z,-1.10
2023-01-29T18:21:58.831Z,-1.00
2023-01-29T18:24:28.189Z,-1.00
2023-01-29T18:26:56.070Z,-1.10
2023-01-29T18:29:29.568Z,-1.10
2023-01-29T18:31:57.575Z,-1.10
2023-01-29T18:34:25.744Z,-1.10
2023-01-29T18:36:53.302Z,-1.10
2023-01-29T18:39:20.934Z,-1.10
2023-01-29T18:41:48.670Z,-1.20
2023-01-29T18:44:16.450Z,-1.20
2023-01-29T18:46:44.238Z,-1.20
2023-01-29T18:49:11.921Z,-1.30
2023-01-29T18:51:40.824Z,-1.30
2023-01-29T18:54:13.451Z,-1.30
2023-01-29T18:57:13.420Z,-1.30
2023-01-29T18:59:32.600Z,-1.30
2023-01-29T19:02:00.976Z,-1.40
2023-01-29T19:04:32.211Z,-1.30
2023-01-29T19:06:59.915Z,-1.30
2023-01-29T19:09:27.754Z,-1.30
2023-01-29T19:11:55.547Z,-1.30
2023-01-29T19:14:23.204Z,-1.40
2023-01-29T19:16:51.448Z,-1.30
2023-01-29T19:19:19.842Z,-1.30
2023-01-29T19:21:47.631Z,-1.30
2023-01-29T19:24:15.443Z,-1.40
2023-01-29T19:26:43.341Z,-1.40
2023-01-29T19:29:12.141Z,-1.40
2023-01-29T19:31:39.919Z,-1.40
2023-01-29T19:34:08.898Z,-1.40
2023-01-29T19:36:37.128Z,-1.40
2023-01-29T19:39:05.556Z,-1.50
2023-01-29T19:41:33.498Z,-1.50
2023-01-29T19:44:01.280Z,-1.60
2023-01-29T19:46:30.384Z,-1.70
2023-01-29T19:48:58.992Z,-1.80
2023-01-29T19:56:06.303Z,-1.90
2023-01-29T19:58:35.197Z,-1.90
2023-01-29T20:01:21.904Z,-2.00
2023-01-29T20:03:50.002Z,-2.00
2023-01-29T20:06:22.667Z,-2.10
2023-01-29T20:08:51.480Z,-2.20
2023-01-29T20:11:22.342Z,-2.20
2023-01-29T20:13:51.623Z,-2.20
2023-01-29T20:16:20.108Z,-2.30
2023-01-29T20:18:49.681Z,-2.30
2023-01-29T20:21:20.826Z,-2.30
2023-01-29T20:23:50.891Z,-2.40
2023-01-29T20:26:20.228Z,-2.40
2023-01-29T20:28:48.591Z,-2.40
2023-01-29T20:31:17.069Z,-2.50
2023-01-29T20:33:44.687Z,-2.40
2023-01-29T20:36:14.911Z,-2.40
2023-01-29T20:38:42.573Z,-2.40
2023-01-29T20:41:14.678Z,-2.50
2023-01-29T20:43:43.777Z,-2.50
2023-01-29T20:46:12.086Z,-2.60
2023-01-29T20:48:40.166Z,-2.60
2023-01-29T20:51:16.679Z,-2.70
2023-01-29T20:53:45.999Z,-2.70
2023-01-29T20:56:15.922Z,-2.80
2023-01-29T20:58:46.673Z,-2.80
2023-01-29T21:01:18.007Z,-2.80
2023-01-29T21:03:46.804Z,-2.80
2023-01-29T21:06:15.819Z,-2.90
2023-01-29T21:08:43.746Z,-2.90
2023-01-29T21:11:11.823Z,-2.90
2023-01-29T21:13:40.887Z,-2.90
2023-01-29T21:16:10.839Z,-2.90
2023-01-29T21:18:38.622Z,-3.00
2023-01-29T21:21:06.493Z,-3.00
2023-01-29T21:23:34.246Z,-3.10
2023-01-29T21:26:03.890Z,-3.10
2023-01-29T21:28:31.885Z,-3.20
2023-01-29T21:31:08.706Z,-3.30
2023-01-29T21:33:49.694Z,-3.30
2023-01-29T21:36:17.665Z,-3.40
2023-01-29T21:38:45.569Z,-3.60
2023-01-29T21:41:13.196Z,-3.60
2023-01-29T21:43:40.934Z,-3.50
2023-01-29T21:46:11.860Z,-3.50
2023-01-29T21:48:40.637Z,-3.50
2023-01-29T21:51:09.138Z,-3.50
2023-01-29T21:53:36.862Z,-3.40
2023-01-29T21:56:06.010Z,-3.50
2023-01-29T21:58:33.689Z,-3.60
2023-01-29T22:01:35.760Z,-3.60
2023-01-29T22:03:48.992Z,-3.60
2023-01-29T22:06:16.657Z,-3.60
2023-01-29T22:08:44.419Z,-3.50
2023-01-29T22:11:12.477Z,-3.50
2023-01-29T22:13:40.017Z,-3.50
2023-01-29T22:16:07.878Z,-3.50
2023-01-29T22:18:35.939Z,-3.50
2023-01-29T22:21:03.834Z,-3.50
2023-01-29T22:23:32.071Z,-3.50
2023-01-29T22:26:04.508Z,-3.50
2023-01-29T22:28:35.090Z,-3.40
2023-01-29T22:31:04.534Z,-3.40
2023-01-29T22:33:33.625Z,-3.50
2023-01-29T22:36:01.753Z,-3.50
2023-01-29T22:38:29.853Z,-3.50
2023-01-29T22:40:59.838Z,-3.40
2023-01-29T22:43:27.708Z,-3.40
2023-01-29T22:45:56.950Z,-3.60
2023-01-29T22:48:24.663Z,-3.50
2023-01-29T22:51:13.568Z,-3.60
2023-01-29T22:53:48.579Z,-3.60
2023-01-29T22:56:16.751Z,-3.60
2023-01-29T22:58:44.674Z,-3.60
2023-01-29T23:01:12.347Z,-3.60
2023-01-29T23:03:39.788Z,-3.50
2023-01-29T23:06:07.508Z,-3.60
2023-01-29T23:08:35.057Z,-3.50
2023-01-29T23:11:14.693Z,-3.50
2023-01-29T23:13:46.502Z,-3.50
2023-01-29T23:16:14.495Z,-3.60
2023-01-29T23:18:42.608Z,-3.60
2023-01-29T23:21:11.145Z,-3.60
2023-01-29T23:23:39.293Z,-3.60
2023-01-29T23:26:26.171Z,-3.60
2023-01-29T23:28:53.733Z,-3.60
2023-01-29T23:31:21.473Z,-3.70
2023-01-29T23:33:49.936Z,-3.70
2023-01-29T23:36:17.434Z,-3.70
2023-01-29T23:38:45.072Z,-3.70
2023-01-29T23:41:12.808Z,-3.70
2023-01-29T23:43:40.493Z,-3.70
2023-01-29T23:46:07.977Z,-3.70
2023-01-29T23:48:35.737Z,-3.70
2023-01-29T23:51:03.484Z,-3.70
2023-01-29T23:53:31.034Z,-3.80
2023-01-29T23:56:04.542Z,-3.80
2023-01-29T23:58:33.460Z,-3.80
